createdAt,value
2018-11-20T00:00:39.983Z,22.10
2018-11-20T00:03:28.491Z,24.10
2018-11-20T00:06:21.206Z,24.37
2018-11-20T00:09:07.042Z,23.73
2018-11-20T00:11:55.574Z,24.27
2018-11-20T00:14:31.980Z,24.73
2018-11-20T00:17:36.366Z,26.50
2018-11-20T00:20:38.431Z,24.57
2018-11-20T00:23:30.524Z,26.17
2018-11-20T00:26:13.721Z,26.20
2018-11-20T00:28:59.170Z,25.80
2018-11-20T00:31:47.539Z,27.20
2018-11-20T00:34:40.953Z,26.23
2018-11-20T00:37:19.482Z,25.40
2018-11-20T00:39:59.493Z,27.43
2018-11-20T00:42:40.249Z,26.43
2018-11-20T00:45:29.986Z,28.10
2018-11-20T00:48:16.235Z,27.20
2018-11-20T00:51:03.990Z,29.10
2018-11-20T00:54:12.239Z,27.27
2018-11-20T00:57:00.592Z,29.57
2018-11-20T00:59:42.581Z,29.10
2018-11-20T01:02:41.278Z,28.83
2018-11-20T01:05:29.901Z,29.83
2018-11-20T01:08:18.561Z,28.83
2018-11-20T01:11:08.299Z,28.67
2018-11-20T01:14:16.202Z,30.80
2018-11-20T01:17:09.255Z,30.13
2018-11-20T01:19:58.657Z,30.83
2018-11-20T01:22:53.795Z,31.13
2018-11-20T01:25:49.381Z,28.37
2018-11-20T01:28:29.297Z,31.13
2018-11-20T01:31:17.498Z,29.00
2018-11-20T01:34:05.921Z,28.60
2018-11-20T01:36:54.583Z,24.73
2018-11-20T01:39:33.676Z,24.90
2018-11-20T01:42:34.671Z,24.63
2018-11-20T01:45:22.892Z,25.27
2018-11-20T01:48:11.238Z,25.27
2018-11-20T01:51:03.281Z,25.67
2018-11-20T01:53:56.045Z,27.40
2018-11-20T01:56:42.873Z,24.33
2018-11-20T01:59:31.181Z,23.70
2018-11-20T02:02:20.028Z,24.83
2018-11-20T02:05:19.261Z,25.07
2018-11-20T02:08:14.366Z,24.93
2018-11-20T02:10:56.321Z,23.90
2018-11-20T02:14:00.616Z,22.83
2018-11-20T02:16:55.612Z,20.33
2018-11-20T02:19:43.867Z,21.67
2018-11-20T02:22:28.445Z,21.03
2018-11-20T02:25:16.794Z,22.03
2018-11-20T02:28:03.518Z,18.97
2018-11-20T02:30:50.911Z,17.60
2018-11-20T02:33:32.735Z,17.43
2018-11-20T02:36:16.150Z,18.20
2018-11-20T02:39:18.044Z,18.43
2018-11-20T02:42:07.451Z,18.57
2018-11-20T02:45:11.721Z,19.10
2018-11-20T02:48:00.037Z,19.00
2018-11-20T02:50:45.264Z,19.60
2018-11-20T02:53:33.839Z,19.37
2018-11-20T02:56:15.594Z,20.00
2018-11-20T02:59:11.181Z,18.57
2018-11-20T03:02:19.373Z,21.10
2018-11-20T03:05:07.837Z,18.97
2018-11-20T03:07:55.806Z,21.67
2018-11-20T03:10:43.924Z,23.20
2018-11-20T03:13:28.210Z,23.97
2018-11-20T03:16:16.800Z,23.27
2018-11-20T03:19:09.300Z,24.23
2018-11-20T03:21:47.698Z,25.50
2018-11-20T03:24:37.144Z,24.00
2018-11-20T03:27:38.834Z,24.00
2018-11-20T03:31:04.670Z,23.13
2018-11-20T03:33:51.967Z,23.33
2018-11-20T03:36:41.778Z,23.67
2018-11-20T03:39:22.543Z,24.37
2018-11-20T03:42:05.527Z,26.13
2018-11-20T03:44:53.773Z,24.17
2018-11-20T03:47:47.728Z,24.10
2018-11-20T03:50:35.862Z,22.40
2018-11-20T03:53:24.250Z,22.40
2018-11-20T03:56:04.636Z,21.80
2018-11-20T03:58:53.279Z,22.00
2018-11-20T04:01:40.494Z,21.80
2018-11-20T04:04:28.663Z,23.03
2018-11-20T04:07:09.035Z,22.47
2018-11-20T04:10:02.887Z,22.63
2018-11-20T04:12:51.106Z,20.83
2018-11-20T04:15:39.546Z,22.40
2018-11-20T04:18:27.662Z,22.70
2018-11-20T04:21:08.071Z,23.17
2018-11-20T04:24:08.617Z,23.67
2018-11-20T04:26:54.393Z,22.23
2018-11-20T04:29:42.005Z,21.00
2018-11-20T04:32:24.309Z,22.37
2018-11-20T04:35:07.036Z,21.70
2018-11-20T04:37:55.065Z,24.03
2018-11-20T04:40:43.432Z,21.10
2018-11-20T04:43:33.431Z,21.83
2018-11-20T04:46:24.227Z,22.07
2018-11-20T04:49:12.441Z,21.60
2018-11-20T04:52:14.207Z,21.20
2018-11-20T04:54:53.263Z,20.30
2018-11-20T04:57:43.405Z,20.50
2018-11-20T05:00:35.453Z,19.07
2018-11-20T05:03:17.608Z,18.23
2018-11-20T05:06:06.218Z,19.07
2018-11-20T05:09:11.283Z,18.60
2018-11-20T05:12:06.767Z,18.13
2018-11-20T05:15:05.735Z,20.07
2018-11-20T05:17:57.883Z,19.47
2018-11-20T05:20:56.434Z,18.87
2018-11-20T05:23:45.852Z,18.40
2018-11-20T05:26:40.154Z,20.30
2018-11-20T05:29:24.786Z,19.30
2018-11-20T05:32:13.187Z,19.80
2018-11-20T05:35:01.715Z,21.43
2018-11-20T05:38:06.254Z,20.10
2018-11-20T05:40:54.291Z,21.40
2018-11-20T05:43:39.155Z,22.67
2018-11-20T05:46:37.719Z,21.47
2018-11-20T05:49:25.878Z,22.10
2018-11-20T05:52:09.520Z,22.50
2018-11-20T05:54:54.413Z,23.30
2018-11-20T05:57:39.568Z,23.07
2018-11-20T06:00:18.403Z,22.37
2018-11-20T06:03:10.343Z,24.40
2018-11-20T06:06:00.446Z,24.60
2018-11-20T06:08:48.516Z,23.10
2018-11-20T06:11:53.172Z,24.33
2018-11-20T06:14:41.051Z,23.57
2018-11-20T06:17:29.158Z,24.30
2018-11-20T06:20:18.844Z,24.63
2018-11-20T06:23:07.810Z,23.67
2018-11-20T06:25:57.598Z,25.00
2018-11-20T06:28:42.247Z,25.67
2018-11-20T06:31:30.881Z,22.63
2018-11-20T06:34:09.584Z,23.30
2018-11-20T06:36:50.476Z,24.00
2018-11-20T06:39:47.310Z,22.90
2018-11-20T06:42:48.841Z,23.57
2018-11-20T06:45:38.849Z,25.70
2018-11-20T06:48:27.015Z,24.97
2018-11-20T06:51:08.982Z,27.40
2018-11-20T06:54:14.530Z,27.37
2018-11-20T06:57:02.590Z,25.50
2018-11-20T07:00:10.375Z,26.80
2018-11-20T07:02:58.528Z,26.00
2018-11-20T07:05:40.628Z,26.33
2018-11-20T07:08:21.901Z,26.13
2018-11-20T07:11:10.355Z,27.00
2018-11-20T07:14:36.607Z,25.13
2018-11-20T07:17:38.163Z,25.27
2018-11-20T07:20:19.935Z,26.23
2018-11-20T07:22:57.926Z,25.03
2018-11-20T07:25:39.422Z,25.07
2018-11-20T07:28:35.399Z,24.53
2018-11-20T07:31:23.838Z,23.27
2018-11-20T07:34:23.023Z,24.40
2018-11-20T07:37:15.877Z,22.43
2018-11-20T07:40:05.134Z,24.07
2018-11-20T07:43:00.672Z,22.00
2018-11-20T07:45:48.645Z,22.47
2018-11-20T07:48:54.035Z,20.20
2018-11-20T07:52:01.756Z,21.83
2018-11-20T07:54:49.911Z,20.67
2018-11-20T07:57:45.599Z,23.00
2018-11-20T08:00:38.060Z,21.27
2018-11-20T08:03:18.924Z,22.40
2018-11-20T08:06:02.794Z,22.37
2018-11-20T08:08:52.573Z,23.10
2018-11-20T08:11:41.342Z,22.53
2018-11-20T08:14:36.413Z,22.40
2018-11-20T08:17:24.515Z,24.20
2018-11-20T08:20:12.759Z,24.37
2018-11-20T08:23:02.363Z,24.20
2018-11-20T08:25:50.486Z,25.50
2018-11-20T08:28:38.934Z,24.93
2018-11-20T08:31:25.479Z,25.83
2018-11-20T08:34:16.966Z,24.23
2018-11-20T08:37:05.362Z,25.40
2018-11-20T08:39:55.243Z,26.10
2018-11-20T08:42:43.711Z,25.30
2018-11-20T08:45:32.858Z,25.33
2018-11-20T08:48:20.980Z,26.13
2018-11-20T08:51:13.899Z,25.50
2018-11-20T08:53:57.802Z,26.60
2018-11-20T08:56:45.777Z,26.43
2018-11-20T08:59:33.878Z,24.13
2018-11-20T09:02:20.033Z,25.83
2018-11-20T09:05:13.414Z,25.57
2018-11-20T09:08:05.355Z,25.77
2018-11-20T09:10:53.559Z,25.00
2018-11-20T09:13:41.837Z,25.40
2018-11-20T09:16:43.747Z,26.87
2018-11-20T09:19:29.071Z,25.50
2018-11-20T09:22:14.958Z,24.80
2018-11-20T09:25:16.615Z,26.77
2018-11-20T09:28:04.710Z,24.63
2018-11-20T09:31:09.023Z,24.80
2018-11-20T09:34:13.510Z,25.33
2018-11-20T09:36:59.588Z,26.50
2018-11-20T09:39:54.276Z,25.37
2018-11-20T09:42:33.091Z,24.57
2018-11-20T09:46:05.543Z,26.30
2018-11-20T09:49:05.579Z,24.43
2018-11-20T09:51:58.599Z,26.57
2018-11-20T09:54:48.234Z,26.03
2018-11-20T09:57:41.179Z,26.50
2018-11-20T10:00:36.101Z,26.13
2018-11-20T10:03:19.385Z,26.33
2018-11-20T10:06:02.398Z,25.50
2018-11-20T10:09:07.077Z,24.60
2018-11-20T10:11:56.512Z,24.67
2018-11-20T10:14:38.261Z,22.90
2018-11-20T10:17:29.986Z,24.03
2018-11-20T10:20:19.684Z,24.57
2018-11-20T10:23:08.582Z,24.10
2018-11-20T10:26:07.320Z,24.50
2018-11-20T10:28:55.293Z,23.77
2018-11-20T10:31:43.601Z,23.20
2018-11-20T10:34:31.856Z,22.97
2018-11-20T10:37:18.889Z,24.57
2018-11-20T10:40:12.676Z,22.60
2018-11-20T10:42:56.090Z,23.20
2018-11-20T10:45:41.126Z,20.43
2018-11-20T10:48:28.194Z,22.33
2018-11-20T10:51:16.870Z,23.60
2018-11-20T10:54:15.356Z,23.23
2018-11-20T10:56:55.634Z,22.80
2018-11-20T10:59:39.182Z,22.40
2018-11-20T11:02:27.185Z,24.67
2018-11-20T11:05:14.905Z,23.23
2018-11-20T11:08:03.629Z,22.43
2018-11-20T11:10:46.091Z,24.60
2018-11-20T11:13:33.945Z,23.30
2018-11-20T11:16:22.420Z,22.43
2018-11-20T11:19:15.837Z,21.50
2018-11-20T11:22:17.208Z,23.57
2018-11-20T11:25:05.566Z,23.70
2018-11-20T11:28:00.835Z,23.60
2018-11-20T11:30:49.939Z,20.67
2018-11-20T11:33:39.373Z,23.40
2018-11-20T11:36:18.109Z,23.40
2018-11-20T11:39:01.358Z,24.23
2018-11-20T11:41:43.107Z,22.73
2018-11-20T11:44:35.714Z,24.07
2018-11-20T11:47:25.229Z,23.30
2018-11-20T11:50:14.340Z,22.63
2018-11-20T11:53:09.524Z,23.70
2018-11-20T11:55:55.021Z,24.43
2018-11-20T11:58:43.086Z,23.17
2018-11-20T12:04:38.400Z,23.70
2018-11-20T12:07:26.703Z,23.27
2018-11-20T12:10:16.134Z,24.00
2018-11-20T12:12:56.615Z,25.07
2018-11-20T12:15:44.975Z,23.77
2018-11-20T12:18:43.635Z,25.87
2018-11-20T12:21:33.351Z,24.80
2018-11-20T12:24:19.787Z,25.00
2018-11-20T12:27:00.395Z,24.60
2018-11-20T12:29:46.672Z,23.60
2018-11-20T12:32:37.359Z,24.67
2018-11-20T12:35:33.263Z,24.50
2018-11-20T12:38:12.311Z,23.87
2018-11-20T12:41:00.989Z,25.00
2018-11-20T12:43:54.828Z,24.60
2018-11-20T12:46:42.522Z,25.00
2018-11-20T12:49:44.507Z,24.60
2018-11-20T12:52:37.093Z,23.00
2018-11-20T12:55:45.987Z,22.60
2018-11-20T12:58:48.106Z,23.80
2018-11-20T13:01:29.251Z,22.63
2018-11-20T13:04:18.655Z,25.00
2018-11-20T13:07:14.740Z,24.90
2018-11-20T13:09:53.569Z,25.60
2018-11-20T13:12:44.785Z,24.67
2018-11-20T13:15:37.577Z,24.30
2018-11-20T13:18:16.038Z,23.00
2018-11-20T13:20:58.157Z,26.47
2018-11-20T13:23:59.883Z,27.00
2018-11-20T13:26:47.951Z,24.17
2018-11-20T13:29:51.392Z,24.97
2018-11-20T13:32:45.661Z,25.87
2018-11-20T13:35:41.899Z,26.43
2018-11-20T13:38:22.470Z,26.50
2018-11-20T13:42:07.220Z,24.60
2018-11-20T13:45:18.605Z,26.47
2018-11-20T13:48:03.146Z,25.70
2018-11-20T13:50:51.844Z,26.70
2018-11-20T13:53:39.773Z,25.23
2018-11-20T13:56:39.829Z,25.63
2018-11-20T13:59:28.373Z,26.03
2018-11-20T14:02:20.850Z,27.53
2018-11-20T14:05:18.732Z,28.00
2018-11-20T14:08:28.285Z,27.20
2018-11-20T14:11:16.119Z,28.93
2018-11-20T14:14:04.790Z,27.83
2018-11-20T14:16:53.079Z,27.37
2018-11-20T14:19:41.688Z,24.80
2018-11-20T14:22:40.261Z,27.00
2018-11-20T14:25:44.324Z,27.80
2018-11-20T14:28:39.979Z,27.57
2018-11-20T14:31:35.995Z,26.80
2018-11-20T14:34:31.227Z,28.90
2018-11-20T14:37:19.715Z,25.57
2018-11-20T14:40:01.570Z,27.23
2018-11-20T14:42:56.784Z,24.67
2018-11-20T14:45:38.217Z,27.77
2018-11-20T14:48:21.348Z,27.07
2018-11-20T14:51:10.843Z,26.87
2018-11-20T14:54:18.645Z,26.60
2018-11-20T14:57:06.726Z,29.03
2018-11-20T14:59:54.962Z,29.03
2018-11-20T15:03:03.158Z,30.50
2018-11-20T15:05:48.460Z,32.70
2018-11-20T15:08:37.856Z,30.37
2018-11-20T15:11:30.752Z,32.83
2018-11-20T15:14:18.747Z,36.43
2018-11-20T15:17:26.467Z,32.50
2018-11-20T15:20:14.020Z,36.83
2018-11-20T15:23:09.412Z,35.33
2018-11-20T15:26:04.161Z,38.27
2018-11-20T15:28:50.620Z,36.60
2018-11-20T15:31:34.740Z,38.43
2018-11-20T15:34:36.146Z,40.57
2018-11-20T15:37:25.875Z,37.90
2018-11-20T15:40:30.868Z,39.40
2018-11-20T15:43:18.148Z,40.50
2018-11-20T15:46:11.239Z,40.80
2018-11-20T15:49:00.201Z,39.80
2018-11-20T15:51:48.236Z,41.23
2018-11-20T15:54:36.164Z,43.70
2018-11-20T15:57:25.839Z,37.07
2018-11-20T16:00:15.251Z,41.17
2018-11-20T16:03:23.025Z,39.70
2018-11-20T16:05:58.501Z,38.93
2018-11-20T16:08:46.931Z,41.50
2018-11-20T16:11:35.441Z,39.97
2018-11-20T16:14:24.050Z,39.83
2018-11-20T16:17:16.768Z,40.10
2018-11-20T16:20:01.460Z,37.77
2018-11-20T16:22:45.726Z,40.73
2018-11-20T16:25:49.091Z,39.37
2018-11-20T16:28:44.432Z,39.70
2018-11-20T16:31:25.341Z,40.37
2018-11-20T16:34:13.433Z,38.80
2018-11-20T16:37:02.008Z,40.07
2018-11-20T16:39:50.142Z,44.00
2018-11-20T16:42:29.258Z,40.60
2018-11-20T16:45:18.680Z,42.10
2018-11-20T16:47:59.433Z,45.30
2018-11-20T16:50:49.676Z,42.90
2018-11-20T16:53:44.855Z,43.73
2018-11-20T16:56:43.437Z,43.70
2018-11-20T16:59:47.679Z,42.43
2018-11-20T17:02:43.815Z,43.70
2018-11-20T17:05:51.562Z,44.73
2018-11-20T17:08:39.702Z,46.67
2018-11-20T17:11:28.031Z,44.47
2018-11-20T17:14:16.884Z,46.80
2018-11-20T17:17:12.173Z,47.53
2018-11-20T17:20:23.888Z,46.60
2018-11-20T17:23:08.298Z,47.80
2018-11-20T17:26:03.660Z,47.90
2018-11-20T17:28:53.984Z,45.50
2018-11-20T17:32:24.951Z,46.27
2018-11-20T17:35:18.056Z,47.03
2018-11-20T17:38:05.126Z,44.00
2018-11-20T17:40:52.246Z,44.07
2018-11-20T17:43:42.965Z,44.53
2018-11-20T17:46:21.829Z,44.83
2018-11-20T17:49:05.724Z,45.53
2018-11-20T17:51:53.011Z,43.67
2018-11-20T17:54:30.354Z,43.30
2018-11-20T17:57:19.486Z,42.57
2018-11-20T18:00:05.975Z,41.50
2018-11-20T18:02:56.853Z,42.27
2018-11-20T18:05:43.927Z,38.80
2018-11-20T18:08:35.183Z,42.60
2018-11-20T18:11:26.984Z,43.63
2018-11-20T18:14:05.067Z,44.13
2018-11-20T18:16:47.907Z,42.30
2018-11-20T18:19:33.120Z,44.00
2018-11-20T18:22:36.420Z,43.80
2018-11-20T18:25:33.231Z,40.63
2018-11-20T18:28:33.724Z,41.37
2018-11-20T18:31:20.605Z,42.10
2018-11-20T18:34:08.089Z,41.23
2018-11-20T18:36:56.242Z,41.70
2018-11-20T18:39:59.475Z,41.80
2018-11-20T18:42:44.283Z,43.77
2018-11-20T18:45:30.103Z,38.20
2018-11-20T18:48:17.568Z,40.47
2018-11-20T18:51:04.896Z,40.80
2018-11-20T18:53:54.704Z,41.57
2018-11-20T18:56:45.093Z,41.57
2018-11-20T18:59:23.602Z,43.20
2018-11-20T19:02:10.542Z,43.47
2018-11-20T19:05:00.767Z,39.70
2018-11-20T19:07:47.772Z,41.10
2018-11-20T19:10:54.365Z,39.97
2018-11-20T19:13:32.567Z,39.40
2018-11-20T19:16:11.755Z,42.30
2018-11-20T19:18:58.871Z,43.00
2018-11-20T19:21:56.024Z,45.00
2018-11-20T19:24:42.942Z,42.27
2018-11-20T19:27:24.751Z,42.50
2018-11-20T19:30:12.897Z,43.27
2018-11-20T19:33:03.852Z,45.53
2018-11-20T19:36:10.261Z,45.23
2018-11-20T19:38:57.805Z,45.80
2018-11-20T19:41:48.887Z,47.80
2018-11-20T19:44:32.019Z,46.97
2018-11-20T19:47:17.656Z,44.60
2018-11-20T19:50:00.166Z,44.30
2018-11-20T19:52:46.980Z,43.97
2018-11-20T19:55:47.185Z,45.80
2018-11-20T19:58:34.959Z,43.40
2018-11-20T20:01:22.479Z,46.83
2018-11-20T20:04:19.789Z,44.30
2018-11-20T20:07:08.018Z,42.80
2018-11-20T20:10:16.560Z,43.50
2018-11-20T20:13:08.501Z,44.50
2018-11-20T20:15:59.301Z,42.23
2018-11-20T20:18:48.120Z,44.57
2018-11-20T20:21:34.641Z,43.13
2018-11-20T20:24:33.161Z,43.50
2018-11-20T20:27:20.446Z,43.63
2018-11-20T20:30:07.704Z,40.97
2018-11-20T20:32:54.605Z,42.00
2018-11-20T20:35:43.140Z,41.13
2018-11-20T20:38:30.351Z,42.00
2018-11-20T20:41:09.910Z,42.00
2018-11-20T20:43:57.324Z,41.93
2018-11-20T20:46:39.278Z,38.70
2018-11-20T20:49:21.715Z,39.67
2018-11-20T20:52:08.694Z,38.00
2018-11-20T20:54:53.916Z,37.10
2018-11-20T20:57:57.025Z,41.30
2018-11-20T21:00:50.197Z,39.23
2018-11-20T21:03:31.863Z,38.87
2018-11-20T21:06:18.951Z,37.30
2018-11-20T21:09:22.193Z,38.03
2018-11-20T21:12:13.034Z,38.73
2018-11-20T21:14:51.155Z,39.53
2018-11-20T21:17:38.614Z,39.10
2018-11-20T21:20:33.147Z,36.47
2018-11-20T21:23:36.254Z,39.57
2018-11-20T21:26:16.334Z,37.03
2018-11-20T21:29:05.072Z,39.20
2018-11-20T21:31:51.805Z,36.73
2018-11-20T21:34:55.679Z,38.10
2018-11-20T21:37:43.019Z,35.27
2018-11-20T21:40:34.105Z,38.20
2018-11-20T21:43:22.291Z,36.97
2018-11-20T21:46:09.331Z,38.43
2018-11-20T21:49:06.998Z,36.57
2018-11-20T21:51:55.156Z,35.20
2018-11-20T21:54:33.518Z,35.47
2018-11-20T21:57:50.283Z,37.80
2018-11-20T22:00:54.525Z,40.40
2018-11-20T22:03:52.090Z,36.43
2018-11-20T22:06:40.501Z,38.13
2018-11-20T22:09:28.146Z,33.67
2018-11-20T22:12:08.104Z,34.33
2018-11-20T22:15:02.530Z,39.53
2018-11-20T22:17:53.840Z,39.80
2018-11-20T22:20:53.918Z,34.70
2018-11-20T22:23:33.955Z,37.37
2018-11-20T22:26:21.037Z,35.60
2018-11-20T22:29:02.656Z,33.97
2018-11-20T22:32:05.805Z,34.30
2018-11-20T22:35:03.345Z,35.27
2018-11-20T22:41:40.285Z,33.80
2018-11-20T22:44:16.522Z,33.57
2018-11-20T22:47:10.657Z,33.70
2018-11-20T22:50:02.205Z,34.10
2018-11-20T22:52:43.663Z,33.20
2018-11-20T22:55:30.899Z,35.83
2018-11-20T22:58:14.030Z,33.57
2018-11-20T23:01:01.078Z,32.47
2018-11-20T23:03:38.336Z,33.17
2018-11-20T23:06:16.741Z,33.00
2018-11-20T23:08:46.394Z,31.10
2018-11-20T23:11:15.567Z,32.77
2018-11-20T23:13:44.915Z,32.50
2018-11-20T23:16:14.028Z,34.10
2018-11-20T23:18:43.494Z,32.00
2018-11-20T23:21:13.206Z,30.97
2018-11-20T23:23:43.019Z,31.97
2018-11-20T23:26:12.134Z,31.93
2018-11-20T23:28:41.581Z,33.10
2018-11-20T23:31:10.710Z,33.40
2018-11-20T23:33:40.197Z,31.43
2018-11-20T23:36:09.313Z,31.27
2018-11-20T23:38:38.701Z,31.70
2018-11-20T23:41:08.346Z,30.87
2018-11-20T23:43:37.526Z,28.67
2018-11-20T23:46:06.916Z,32.60
2018-11-20T23:48:36.674Z,32.77
2018-11-20T23:51:05.970Z,32.77
2018-11-20T23:53:35.375Z,31.90
2018-11-20T23:56:04.797Z,32.53
2018-11-20T23:58:34.384Z,30.00
